Main page
METAR-TAF:

METAR-TAF

Airports :

Khajuraho Airport

Khajuraho, India

latitude: 24-49-02N, longitude: 79-55-07E, elevation: 222 m

Current weather observation

The report was made 9 hours and 30 minutes ago, at 12:00 UTC
Wind 2 kt from the Northeast
Temperature 23°C
Humidity 50%
Pressure 1013 hPa
Visibility: 2000 m
haze

METAR: VEKO 011200Z 05002KT 2000 HZ NSC 23/12 Q1013

Time: 03:00 (21:30 UTC)

Forecast

The report was made 1 hour and 30 minutes ago, at 20:00 UTC
Forecast valid from 01 at 21 UTC to 02 at 06 UTC
Wind 5 kt from the Northeast
Visibility: 2000 m
mist, haze
Becoming
from 02 at 01 UTC to 02 at 03 UTC
Visibility: 1500 m
mist, haze

TAF: VEKO 012000Z 0121/0206 05005KT 2000 BR HZ NSC BECMG 0201/0203 1500 BR HZ

Weather observations and forecasts of more than 4000 airports (METAR and TAF reports).

The available stations are represented by yellow and red dots on the map.

Hover mouse over dot to see the name of the station.

Then click to see weather observations and forecasts.

To change the map : click on the green buttons with a black cross to zoom in, on the green button with a dash to zoom out, or on the green arrows for adjacent maps.


METAR-TAF: